sensor_id;sensor_type;location;lat;lon;timestamp;P1;durP1;ratioP1;P2;durP2;ratioP2
18507;SDS011;9383;50.928;12.116;2023-04-01T00:00:50;1.00;;;0.90;;
18507;SDS011;9383;50.928;12.116;2023-04-01T00:03:18;1.13;;;0.85;;
18507;SDS011;9383;50.928;12.116;2023-04-01T00:05:46;4.80;;;2.78;;
18507;SDS011;9383;50.928;12.116;2023-04-01T00:08:13;6.18;;;2.33;;
18507;SDS011;9383;50.928;12.116;2023-04-01T00:10:40;2.15;;;1.30;;
18507;SDS011;9383;50.928;12.116;2023-04-01T00:13:07;1.10;;;1.00;;
18507;SDS011;9383;50.928;12.116;2023-04-01T00:15:34;0.95;;;0.85;;
18507;SDS011;9383;50.928;12.116;2023-04-01T00:18:01;1.42;;;0.80;;
18507;SDS011;9383;50.928;12.116;2023-04-01T00:20:28;1.67;;;1.00;;
18507;SDS011;9383;50.928;12.116;2023-04-01T00:22:54;2.90;;;1.00;;
18507;SDS011;9383;50.928;12.116;2023-04-01T00:25:21;0.95;;;0.80;;
18507;SDS011;9383;50.928;12.116;2023-04-01T00:27:48;0.77;;;0.60;;
18507;SDS011;9383;50.928;12.116;2023-04-01T00:30:15;2.30;;;1.17;;
18507;SDS011;9383;50.928;12.116;2023-04-01T00:32:42;1.40;;;0.70;;
18507;SDS011;9383;50.928;12.116;2023-04-01T00:35:09;1.10;;;0.75;;
18507;SDS011;9383;50.928;12.116;2023-04-01T00:37:36;1.58;;;0.80;;
18507;SDS011;9383;50.928;12.116;2023-04-01T00:40:05;1.02;;;0.85;;
18507;SDS011;9383;50.928;12.116;2023-04-01T00:42:32;0.70;;;0.70;;
18507;SDS011;9383;50.928;12.116;2023-04-01T00:45:21;2.00;;;0.85;;
18507;SDS011;9383;50.928;12.116;2023-04-01T00:47:50;2.78;;;0.93;;
18507;SDS011;9383;50.928;12.116;2023-04-01T00:50:17;1.30;;;1.00;;
18507;SDS011;9383;50.928;12.116;2023-04-01T00:52:44;2.25;;;0.88;;
18507;SDS011;9383;50.928;12.116;2023-04-01T00:55:11;2.10;;;0.90;;
18507;SDS011;9383;50.928;12.116;2023-04-01T00:57:39;1.27;;;1.02;;
18507;SDS011;9383;50.928;12.116;2023-04-01T01:00:10;0.70;;;0.60;;
18507;SDS011;9383;50.928;12.116;2023-04-01T01:02:40;1.60;;;0.70;;
18507;SDS011;9383;50.928;12.116;2023-04-01T01:05:11;2.67;;;0.85;;
18507;SDS011;9383;50.928;12.116;2023-04-01T01:10:26;1.30;;;1.05;;
18507;SDS011;9383;50.928;12.116;2023-04-01T01:15:41;1.40;;;0.68;;
18507;SDS011;9383;50.928;12.116;2023-04-01T01:26:47;2.22;;;0.85;;
18507;SDS011;9383;50.928;12.116;2023-04-01T01:32:09;1.63;;;0.93;;
18507;SDS011;9383;50.928;12.116;2023-04-01T01:37:48;0.57;;;0.57;;
18507;SDS011;9383;50.928;12.116;2023-04-01T01:40:20;1.83;;;1.10;;
18507;SDS011;9383;50.928;12.116;2023-04-01T01:42:49;3.80;;;0.95;;
18507;SDS011;9383;50.928;12.116;2023-04-01T01:45:19;3.08;;;0.75;;
18507;SDS011;9383;50.928;12.116;2023-04-01T01:47:49;1.73;;;1.00;;
18507;SDS011;9383;50.928;12.116;2023-04-01T01:50:16;2.22;;;0.95;;
18507;SDS011;9383;50.928;12.116;2023-04-01T01:52:44;0.90;;;0.82;;
18507;SDS011;9383;50.928;12.116;2023-04-01T01:55:26;2.83;;;1.15;;
18507;SDS011;9383;50.928;12.116;2023-04-01T01:57:56;5.07;;;1.05;;
18507;SDS011;9383;50.928;12.116;2023-04-01T02:00:26;2.30;;;0.80;;
18507;SDS011;9383;50.928;12.116;2023-04-01T02:02:53;1.77;;;1.00;;
18507;SDS011;9383;50.928;12.116;2023-04-01T02:05:24;3.60;;;1.10;;
18507;SDS011;9383;50.928;12.116;2023-04-01T02:07:58;2.55;;;1.02;;
18507;SDS011;9383;50.928;12.116;2023-04-01T02:10:31;2.15;;;1.10;;
18507;SDS011;9383;50.928;12.116;2023-04-01T02:13:05;1.52;;;0.82;;
18507;SDS011;9383;50.928;12.116;2023-04-01T02:15:42;2.00;;;1.08;;
18507;SDS011;9383;50.928;12.116;2023-04-01T02:18:11;2.05;;;1.10;;
18507;SDS011;9383;50.928;12.116;2023-04-01T02:20:40;2.60;;;1.15;;
18507;SDS011;9383;50.928;12.116;2023-04-01T02:23:09;4.85;;;1.25;;
18507;SDS011;9383;50.928;12.116;2023-04-01T02:25:37;3.33;;;1.17;;
18507;SDS011;9383;50.928;12.116;2023-04-01T02:28:06;1.05;;;0.90;;
18507;SDS011;9383;50.928;12.116;2023-04-01T02:30:35;1.33;;;0.82;;
18507;SDS011;9383;50.928;12.116;2023-04-01T02:33:05;2.35;;;1.20;;
18507;SDS011;9383;50.928;12.116;2023-04-01T02:35:33;1.10;;;0.80;;
18507;SDS011;9383;50.928;12.116;2023-04-01T02:38:01;1.98;;;1.10;;
18507;SDS011;9383;50.928;12.116;2023-04-01T02:40:28;1.92;;;1.23;;
18507;SDS011;9383;50.928;12.116;2023-04-01T02:42:55;1.73;;;0.93;;
18507;SDS011;9383;50.928;12.116;2023-04-01T02:45:21;3.10;;;1.00;;
18507;SDS011;9383;50.928;12.116;2023-04-01T02:47:49;2.70;;;1.20;;
18507;SDS011;9383;50.928;12.116;2023-04-01T02:50:15;3.15;;;1.13;;
18507;SDS011;9383;50.928;12.116;2023-04-01T02:52:42;2.72;;;1.33;;
18507;SDS011;9383;50.928;12.116;2023-04-01T02:55:09;2.03;;;1.20;;
18507;SDS011;9383;50.928;12.116;2023-04-01T02:57:35;1.45;;;1.00;;
18507;SDS011;9383;50.928;12.116;2023-04-01T03:00:02;2.83;;;0.90;;
18507;SDS011;9383;50.928;12.116;2023-04-01T03:02:29;1.85;;;1.10;;
18507;SDS011;9383;50.928;12.116;2023-04-01T03:04:55;2.55;;;0.88;;
18507;SDS011;9383;50.928;12.116;2023-04-01T03:07:22;1.52;;;0.95;;
18507;SDS011;9383;50.928;12.116;2023-04-01T03:09:48;1.02;;;0.85;;
18507;SDS011;9383;50.928;12.116;2023-04-01T03:12:15;1.88;;;0.90;;
18507;SDS011;9383;50.928;12.116;2023-04-01T03:14:42;1.35;;;0.88;;
18507;SDS011;9383;50.928;12.116;2023-04-01T03:17:08;2.47;;;0.90;;
18507;SDS011;9383;50.928;12.116;2023-04-01T03:19:35;2.05;;;0.68;;
18507;SDS011;9383;50.928;12.116;2023-04-01T03:22:01;3.80;;;1.08;;
18507;SDS011;9383;50.928;12.116;2023-04-01T03:24:28;1.77;;;0.60;;
18507;SDS011;9383;50.928;12.116;2023-04-01T03:26:54;2.60;;;1.00;;
18507;SDS011;9383;50.928;12.116;2023-04-01T03:29:21;0.73;;;0.73;;
18507;SDS011;9383;50.928;12.116;2023-04-01T03:31:47;2.20;;;0.70;;
18507;SDS011;9383;50.928;12.116;2023-04-01T03:34:13;3.00;;;0.80;;
18507;SDS011;9383;50.928;12.116;2023-04-01T03:36:40;1.05;;;0.73;;
18507;SDS011;9383;50.928;12.116;2023-04-01T03:39:06;2.70;;;0.88;;
18507;SDS011;9383;50.928;12.116;2023-04-01T03:41:34;1.33;;;0.60;;
18507;SDS011;9383;50.928;12.116;2023-04-01T03:44:03;1.20;;;0.70;;
18507;SDS011;9383;50.928;12.116;2023-04-01T03:46:29;0.80;;;0.80;;
18507;SDS011;9383;50.928;12.116;2023-04-01T03:48:56;1.23;;;0.95;;
18507;SDS011;9383;50.928;12.116;2023-04-01T03:51:22;0.90;;;0.85;;
18507;SDS011;9383;50.928;12.116;2023-04-01T03:53:48;1.25;;;0.88;;
18507;SDS011;9383;50.928;12.116;2023-04-01T03:56:15;2.47;;;0.77;;
18507;SDS011;9383;50.928;12.116;2023-04-01T03:58:42;2.83;;;0.80;;
18507;SDS011;9383;50.928;12.116;2023-04-01T04:01:15;0.75;;;0.50;;
18507;SDS011;9383;50.928;12.116;2023-04-01T04:03:43;2.47;;;0.73;;
18507;SDS011;9383;50.928;12.116;2023-04-01T04:06:11;0.95;;;0.60;;
18507;SDS011;9383;50.928;12.116;2023-04-01T04:08:38;1.80;;;0.73;;
18507;SDS011;9383;50.928;12.116;2023-04-01T04:11:05;1.05;;;0.50;;
18507;SDS011;9383;50.928;12.116;2023-04-01T04:13:33;1.95;;;0.85;;
18507;SDS011;9383;50.928;12.116;2023-04-01T04:15:59;1.20;;;1.10;;
18507;SDS011;9383;50.928;12.116;2023-04-01T04:18:26;1.65;;;0.80;;
18507;SDS011;9383;50.928;12.116;2023-04-01T04:20:52;1.30;;;0.77;;
18507;SDS011;9383;50.928;12.116;2023-04-01T04:23:19;1.25;;;0.68;;
18507;SDS011;9383;50.928;12.116;2023-04-01T04:26:05;1.23;;;0.70;;
18507;SDS011;9383;50.928;12.116;2023-04-01T04:28:33;1.33;;;0.80;;
18507;SDS011;9383;50.928;12.116;2023-04-01T04:31:00;1.58;;;0.50;;
18507;SDS011;9383;50.928;12.116;2023-04-01T04:33:27;0.65;;;0.50;;
18507;SDS011;9383;50.928;12.116;2023-04-01T04:35:57;0.85;;;0.65;;
18507;SDS011;9383;50.928;12.116;2023-04-01T04:38:24;2.63;;;0.55;;
18507;SDS011;9383;50.928;12.116;2023-04-01T04:40:51;1.42;;;0.80;;
18507;SDS011;9383;50.928;12.116;2023-04-01T04:43:18;1.40;;;0.80;;
18507;SDS011;9383;50.928;12.116;2023-04-01T04:45:44;2.10;;;0.70;;
18507;SDS011;9383;50.928;12.116;2023-04-01T04:48:12;1.50;;;0.55;;
18507;SDS011;9383;50.928;12.116;2023-04-01T04:50:44;1.40;;;0.77;;
18507;SDS011;9383;50.928;12.116;2023-04-01T04:53:15;1.00;;;0.90;;
18507;SDS011;9383;50.928;12.116;2023-04-01T04:55:49;0.73;;;0.70;;
18507;SDS011;9383;50.928;12.116;2023-04-01T04:58:16;1.10;;;0.70;;
18507;SDS011;9383;50.928;12.116;2023-04-01T05:00:43;0.52;;;0.52;;
18507;SDS011;9383;50.928;12.116;2023-04-01T05:03:10;2.22;;;0.70;;
18507;SDS011;9383;50.928;12.116;2023-04-01T05:05:57;2.47;;;0.45;;
18507;SDS011;9383;50.928;12.116;2023-04-01T05:08:23;1.30;;;0.60;;
18507;SDS011;9383;50.928;12.116;2023-04-01T05:10:50;1.80;;;0.82;;
18507;SDS011;9383;50.928;12.116;2023-04-01T05:13:17;0.75;;;0.50;;
18507;SDS011;9383;50.928;12.116;2023-04-01T05:15:44;1.92;;;0.82;;
18507;SDS011;9383;50.928;12.116;2023-04-01T05:18:10;1.15;;;0.63;;
18507;SDS011;9383;50.928;12.116;2023-04-01T05:20:37;0.93;;;0.60;;
18507;SDS011;9383;50.928;12.116;2023-04-01T05:23:03;1.48;;;0.60;;
18507;SDS011;9383;50.928;12.116;2023-04-01T05:25:30;0.70;;;0.70;;
18507;SDS011;9383;50.928;12.116;2023-04-01T05:27:56;1.40;;;0.50;;
18507;SDS011;9383;50.928;12.116;2023-04-01T05:30:23;1.75;;;0.88;;
18507;SDS011;9383;50.928;12.116;2023-04-01T05:32:49;1.10;;;0.80;;
18507;SDS011;9383;50.928;12.116;2023-04-01T05:35:16;1.27;;;0.60;;
18507;SDS011;9383;50.928;12.116;2023-04-01T05:37:42;0.80;;;0.80;;
18507;SDS011;9383;50.928;12.116;2023-04-01T05:40:09;2.78;;;0.80;;
18507;SDS011;9383;50.928;12.116;2023-04-01T05:42:36;2.38;;;0.75;;
18507;SDS011;9383;50.928;12.116;2023-04-01T05:45:03;0.60;;;0.50;;
18507;SDS011;9383;50.928;12.116;2023-04-01T05:47:29;2.58;;;0.95;;
18507;SDS011;9383;50.928;12.116;2023-04-01T05:49:56;2.33;;;1.00;;
18507;SDS011;9383;50.928;12.116;2023-04-01T05:52:22;1.35;;;0.68;;
18507;SDS011;9383;50.928;12.116;2023-04-01T05:54:49;2.15;;;0.80;;
18507;SDS011;9383;50.928;12.116;2023-04-01T05:57:16;0.40;;;0.40;;
18507;SDS011;9383;50.928;12.116;2023-04-01T05:59:44;1.15;;;0.70;;
18507;SDS011;9383;50.928;12.116;2023-04-01T06:02:17;3.85;;;1.15;;
18507;SDS011;9383;50.928;12.116;2023-04-01T06:04:44;2.67;;;1.17;;
18507;SDS011;9383;50.928;12.116;2023-04-01T06:07:11;1.98;;;1.05;;
18507;SDS011;9383;50.928;12.116;2023-04-01T06:09:39;1.30;;;0.60;;
18507;SDS011;9383;50.928;12.116;2023-04-01T06:12:10;0.80;;;0.80;;
18507;SDS011;9383;50.928;12.116;2023-04-01T06:20:41;1.65;;;0.77;;
18507;SDS011;9383;50.928;12.116;2023-04-01T06:25:50;1.70;;;0.63;;
18507;SDS011;9383;50.928;12.116;2023-04-01T06:34:14;0.95;;;0.77;;
18507;SDS011;9383;50.928;12.116;2023-04-01T06:39:32;1.80;;;0.60;;
18507;SDS011;9383;50.928;12.116;2023-04-01T06:42:13;1.65;;;0.70;;
18507;SDS011;9383;50.928;12.116;2023-04-01T06:45:00;2.38;;;0.70;;
18507;SDS011;9383;50.928;12.116;2023-04-01T06:47:43;1.60;;;0.57;;
18507;SDS011;9383;50.928;12.116;2023-04-01T06:50:43;1.63;;;0.80;;
18507;SDS011;9383;50.928;12.116;2023-04-01T06:53:30;1.80;;;0.70;;
18507;SDS011;9383;50.928;12.116;2023-04-01T06:56:13;0.68;;;0.60;;
18507;SDS011;9383;50.928;12.116;2023-04-01T06:58:51;1.15;;;0.50;;
18507;SDS011;9383;50.928;12.116;2023-04-01T07:01:35;1.13;;;0.63;;
18507;SDS011;9383;50.928;12.116;2023-04-01T07:04:14;1.13;;;0.80;;
18507;SDS011;9383;50.928;12.116;2023-04-01T07:06:50;0.98;;;0.70;;
18507;SDS011;9383;50.928;12.116;2023-04-01T07:09:22;1.27;;;0.68;;
18507;SDS011;9383;50.928;12.116;2023-04-01T07:12:03;1.85;;;0.73;;
18507;SDS011;9383;50.928;12.116;2023-04-01T07:14:45;1.10;;;0.80;;
18507;SDS011;9383;50.928;12.116;2023-04-01T07:17:15;2.42;;;0.77;;
18507;SDS011;9383;50.928;12.116;2023-04-01T07:19:50;2.00;;;0.55;;
18507;SDS011;9383;50.928;12.116;2023-04-01T07:22:45;1.05;;;0.50;;
18507;SDS011;9383;50.928;12.116;2023-04-01T07:25:18;2.65;;;0.82;;
18507;SDS011;9383;50.928;12.116;2023-04-01T07:27:52;2.08;;;1.20;;
18507;SDS011;9383;50.928;12.116;2023-04-01T07:30:22;1.10;;;0.50;;
18507;SDS011;9383;50.928;12.116;2023-04-01T07:35:44;1.13;;;0.70;;
18507;SDS011;9383;50.928;12.116;2023-04-01T07:38:26;1.50;;;0.90;;
18507;SDS011;9383;50.928;12.116;2023-04-01T07:41:09;2.00;;;0.60;;
18507;SDS011;9383;50.928;12.116;2023-04-01T07:44:05;1.30;;;0.82;;
18507;SDS011;9383;50.928;12.116;2023-04-01T07:52:08;1.60;;;0.82;;
18507;SDS011;9383;50.928;12.116;2023-04-01T08:00:13;0.98;;;0.55;;
18507;SDS011;9383;50.928;12.116;2023-04-01T08:02:47;2.25;;;1.83;;
18507;SDS011;9383;50.928;12.116;2023-04-01T08:08:19;1.02;;;0.50;;
18507;SDS011;9383;50.928;12.116;2023-04-01T08:11:06;1.60;;;0.80;;
18507;SDS011;9383;50.928;12.116;2023-04-01T08:14:07;0.70;;;0.70;;
18507;SDS011;9383;50.928;12.116;2023-04-01T08:22:41;1.95;;;0.82;;
18507;SDS011;9383;50.928;12.116;2023-04-01T08:25:14;0.98;;;0.68;;
18507;SDS011;9383;50.928;12.116;2023-04-01T08:36:31;0.82;;;0.50;;
18507;SDS011;9383;50.928;12.116;2023-04-01T08:39:18;1.15;;;0.57;;
18507;SDS011;9383;50.928;12.116;2023-04-01T08:50:48;1.63;;;0.70;;
18507;SDS011;9383;50.928;12.116;2023-04-01T08:56:55;1.33;;;1.23;;
18507;SDS011;9383;50.928;12.116;2023-04-01T08:59:32;7.63;;;6.93;;
18507;SDS011;9383;50.928;12.116;2023-04-01T09:13:29;0.20;;;0.20;;
18507;SDS011;9383;50.928;12.116;2023-04-01T09:19:11;0.30;;;0.20;;
18507;SDS011;9383;50.928;12.116;2023-04-01T09:21:56;1.02;;;0.32;;
18507;SDS011;9383;50.928;12.116;2023-04-01T09:30:31;0.65;;;0.13;;
18507;SDS011;9383;50.928;12.116;2023-04-01T09:39:32;1.48;;;0.38;;
18507;SDS011;9383;50.928;12.116;2023-04-01T09:44:59;0.52;;;0.50;;
18507;SDS011;9383;50.928;12.116;2023-04-01T09:48:00;0.43;;;0.20;;
18507;SDS011;9383;50.928;12.116;2023-04-01T09:51:20;1.75;;;0.38;;
18507;SDS011;9383;50.928;12.116;2023-04-01T09:54:13;0.40;;;0.40;;
18507;SDS011;9383;50.928;12.116;2023-04-01T10:00:01;0.30;;;0.20;;
18507;SDS011;9383;50.928;12.116;2023-04-01T10:03:13;0.73;;;0.20;;
18507;SDS011;9383;50.928;12.116;2023-04-01T10:20:09;0.50;;;0.50;;
18507;SDS011;9383;50.928;12.116;2023-04-01T10:23:11;0.10;;;0.10;;
18507;SDS011;9383;50.928;12.116;2023-04-01T10:31:35;0.10;;;0.10;;
18507;SDS011;9383;50.928;12.116;2023-04-01T10:34:41;0.20;;;0.20;;
18507;SDS011;9383;50.928;12.116;2023-04-01T10:43:16;0.50;;;0.20;;
18507;SDS011;9383;50.928;12.116;2023-04-01T10:45:58;0.55;;;0.30;;
18507;SDS011;9383;50.928;12.116;2023-04-01T10:58:07;0.40;;;0.30;;
18507;SDS011;9383;50.928;12.116;2023-04-01T11:03:38;0.60;;;0.40;;
18507;SDS011;9383;50.928;12.116;2023-04-01T11:09:34;0.40;;;0.22;;
18507;SDS011;9383;50.928;12.116;2023-04-01T11:12:38;0.80;;;0.25;;
18507;SDS011;9383;50.928;12.116;2023-04-01T11:15:28;0.20;;;0.20;;
18507;SDS011;9383;50.928;12.116;2023-04-01T11:20:45;0.30;;;0.30;;
18507;SDS011;9383;50.928;12.116;2023-04-01T11:32:53;0.30;;;0.30;;
18507;SDS011;9383;50.928;12.116;2023-04-01T11:41:20;0.88;;;0.45;;
18507;SDS011;9383;50.928;12.116;2023-04-01T11:44:11;0.40;;;0.22;;
18507;SDS011;9383;50.928;12.116;2023-04-01T11:52:55;0.25;;;0.25;;
18507;SDS011;9383;50.928;12.116;2023-04-01T11:58:31;0.70;;;0.30;;
18507;SDS011;9383;50.928;12.116;2023-04-01T12:04:50;0.10;;;0.10;;
18507;SDS011;9383;50.928;12.116;2023-04-01T12:10:45;0.50;;;0.30;;
18507;SDS011;9383;50.928;12.116;2023-04-01T12:16:28;1.27;;;0.40;;
18507;SDS011;9383;50.928;12.116;2023-04-01T12:19:04;0.45;;;0.35;;
18507;SDS011;9383;50.928;12.116;2023-04-01T12:27:31;0.40;;;0.40;;
18507;SDS011;9383;50.928;12.116;2023-04-01T12:33:10;0.32;;;0.32;;
18507;SDS011;9383;50.928;12.116;2023-04-01T12:36:02;0.50;;;0.30;;
18507;SDS011;9383;50.928;12.116;2023-04-01T12:41:52;0.40;;;0.15;;
18507;SDS011;9383;50.928;12.116;2023-04-01T12:47:41;0.20;;;0.20;;
18507;SDS011;9383;50.928;12.116;2023-04-01T12:50:31;0.38;;;0.25;;
18507;SDS011;9383;50.928;12.116;2023-04-01T12:56:08;0.40;;;0.40;;
18507;SDS011;9383;50.928;12.116;2023-04-01T13:01:30;0.20;;;0.20;;
18507;SDS011;9383;50.928;12.116;2023-04-01T13:15:37;0.13;;;0.13;;
18507;SDS011;9383;50.928;12.116;2023-04-01T13:21:18;0.40;;;0.30;;
18507;SDS011;9383;50.928;12.116;2023-04-01T13:26:47;1.45;;;0.45;;
18507;SDS011;9383;50.928;12.116;2023-04-01T13:29:37;0.65;;;0.32;;
18507;SDS011;9383;50.928;12.116;2023-04-01T13:34:50;0.52;;;0.40;;
18507;SDS011;9383;50.928;12.116;2023-04-01T13:37:52;0.20;;;0.20;;
18507;SDS011;9383;50.928;12.116;2023-04-01T13:40:33;0.43;;;0.30;;
18507;SDS011;9383;50.928;12.116;2023-04-01T13:43:22;0.52;;;0.35;;
18507;SDS011;9383;50.928;12.116;2023-04-01T13:48:33;0.20;;;0.20;;
18507;SDS011;9383;50.928;12.116;2023-04-01T13:51:21;0.10;;;0.10;;
18507;SDS011;9383;50.928;12.116;2023-04-01T13:53:57;0.43;;;0.35;;
18507;SDS011;9383;50.928;12.116;2023-04-01T13:59:28;1.00;;;0.35;;
18507;SDS011;9383;50.928;12.116;2023-04-01T14:02:14;0.63;;;0.20;;
18507;SDS011;9383;50.928;12.116;2023-04-01T14:04:49;0.20;;;0.20;;
18507;SDS011;9383;50.928;12.116;2023-04-01T14:12:58;0.32;;;0.32;;
18507;SDS011;9383;50.928;12.116;2023-04-01T14:23:51;1.85;;;0.35;;
18507;SDS011;9383;50.928;12.116;2023-04-01T14:29:22;0.60;;;0.60;;
18507;SDS011;9383;50.928;12.116;2023-04-01T14:34:43;0.20;;;0.20;;
18507;SDS011;9383;50.928;12.116;2023-04-01T14:40:05;1.27;;;0.30;;
18507;SDS011;9383;50.928;12.116;2023-04-01T14:45:46;1.38;;;0.20;;
18507;SDS011;9383;50.928;12.116;2023-04-01T14:48:21;0.73;;;0.20;;
18507;SDS011;9383;50.928;12.116;2023-04-01T14:50:57;0.28;;;0.20;;
18507;SDS011;9383;50.928;12.116;2023-04-01T14:53:53;0.20;;;0.20;;
18507;SDS011;9383;50.928;12.116;2023-04-01T14:56:36;0.57;;;0.50;;
18507;SDS011;9383;50.928;12.116;2023-04-01T14:59:07;0.63;;;0.35;;
18507;SDS011;9383;50.928;12.116;2023-04-01T15:07:33;0.30;;;0.30;;
18507;SDS011;9383;50.928;12.116;2023-04-01T15:15:46;0.52;;;0.40;;
18507;SDS011;9383;50.928;12.116;2023-04-01T15:18:25;0.30;;;0.30;;
18507;SDS011;9383;50.928;12.116;2023-04-01T15:24:20;0.40;;;0.40;;
18507;SDS011;9383;50.928;12.116;2023-04-01T15:26:56;0.25;;;0.25;;
18507;SDS011;9383;50.928;12.116;2023-04-01T15:38:33;0.20;;;0.20;;
18507;SDS011;9383;50.928;12.116;2023-04-01T15:41:29;0.40;;;0.40;;
18507;SDS011;9383;50.928;12.116;2023-04-01T15:44:24;0.50;;;0.50;;
18507;SDS011;9383;50.928;12.116;2023-04-01T15:47:27;0.30;;;0.30;;
18507;SDS011;9383;50.928;12.116;2023-04-01T15:55:45;0.20;;;0.10;;
18507;SDS011;9383;50.928;12.116;2023-04-01T15:58:31;0.28;;;0.20;;
18507;SDS011;9383;50.928;12.116;2023-04-01T16:01:23;0.35;;;0.35;;
18507;SDS011;9383;50.928;12.116;2023-04-01T16:04:09;0.40;;;0.40;;
18507;SDS011;9383;50.928;12.116;2023-04-01T16:07:10;0.65;;;0.20;;
18507;SDS011;9383;50.928;12.116;2023-04-01T16:12:35;0.93;;;0.30;;
18507;SDS011;9383;50.928;12.116;2023-04-01T16:20:42;0.30;;;0.30;;
18507;SDS011;9383;50.928;12.116;2023-04-01T16:23:16;0.50;;;0.50;;
18507;SDS011;9383;50.928;12.116;2023-04-01T16:26:09;0.57;;;0.50;;
18507;SDS011;9383;50.928;12.116;2023-04-01T16:31:54;0.52;;;0.52;;
18507;SDS011;9383;50.928;12.116;2023-04-01T16:37:37;1.48;;;0.70;;
18507;SDS011;9383;50.928;12.116;2023-04-01T16:40:13;0.40;;;0.40;;
18507;SDS011;9383;50.928;12.116;2023-04-01T16:48:54;0.55;;;0.55;;
18507;SDS011;9383;50.928;12.116;2023-04-01T16:51:41;0.73;;;0.73;;
18507;SDS011;9383;50.928;12.116;2023-04-01T16:56:55;0.70;;;0.70;;
18507;SDS011;9383;50.928;12.116;2023-04-01T16:59:24;0.88;;;0.57;;
18507;SDS011;9383;50.928;12.116;2023-04-01T17:04:34;1.00;;;1.00;;
18507;SDS011;9383;50.928;12.116;2023-04-01T17:18:32;1.00;;;0.88;;
18507;SDS011;9383;50.928;12.116;2023-04-01T17:21:14;0.75;;;0.75;;
18507;SDS011;9383;50.928;12.116;2023-04-01T17:31:45;2.25;;;1.17;;
18507;SDS011;9383;50.928;12.116;2023-04-01T17:37:01;1.20;;;1.10;;
18507;SDS011;9383;50.928;12.116;2023-04-01T17:45:41;1.15;;;1.15;;
18507;SDS011;9383;50.928;12.116;2023-04-01T17:51:17;1.38;;;1.27;;
18507;SDS011;9383;50.928;12.116;2023-04-01T17:53:59;1.20;;;1.10;;
18507;SDS011;9383;50.928;12.116;2023-04-01T17:59:55;1.38;;;1.10;;
18507;SDS011;9383;50.928;12.116;2023-04-01T18:05:24;1.30;;;1.20;;
18507;SDS011;9383;50.928;12.116;2023-04-01T18:08:33;1.45;;;1.35;;
18507;SDS011;9383;50.928;12.116;2023-04-01T18:11:21;1.42;;;1.35;;
18507;SDS011;9383;50.928;12.116;2023-04-01T18:22:44;1.55;;;1.45;;
18507;SDS011;9383;50.928;12.116;2023-04-01T18:25:33;1.88;;;1.40;;
18507;SDS011;9383;50.928;12.116;2023-04-01T18:36:53;1.83;;;1.45;;
18507;SDS011;9383;50.928;12.116;2023-04-01T18:52:51;1.90;;;1.80;;
18507;SDS011;9383;50.928;12.116;2023-04-01T18:55:42;2.38;;;2.13;;
18507;SDS011;9383;50.928;12.116;2023-04-01T19:03:55;2.22;;;2.13;;
18507;SDS011;9383;50.928;12.116;2023-04-01T19:06:48;2.58;;;2.30;;
18507;SDS011;9383;50.928;12.116;2023-04-01T19:09:19;2.40;;;2.30;;
18507;SDS011;9383;50.928;12.116;2023-04-01T19:11:59;2.47;;;2.28;;
18507;SDS011;9383;50.928;12.116;2023-04-01T19:14:41;2.40;;;2.10;;
18507;SDS011;9383;50.928;12.116;2023-04-01T19:17:57;2.05;;;1.45;;
18507;SDS011;9383;50.928;12.116;2023-04-01T19:20:47;3.40;;;1.50;;
18507;SDS011;9383;50.928;12.116;2023-04-01T19:23:34;1.63;;;1.52;;
18507;SDS011;9383;50.928;12.116;2023-04-01T19:26:20;3.55;;;1.92;;
18507;SDS011;9383;50.928;12.116;2023-04-01T19:29:37;1.90;;;1.80;;
18507;SDS011;9383;50.928;12.116;2023-04-01T19:35:09;1.70;;;1.60;;
18507;SDS011;9383;50.928;12.116;2023-04-01T19:37:57;1.80;;;1.70;;
18507;SDS011;9383;50.928;12.116;2023-04-01T19:43:31;1.67;;;1.58;;
18507;SDS011;9383;50.928;12.116;2023-04-01T19:49:17;2.13;;;1.60;;
18507;SDS011;9383;50.928;12.116;2023-04-01T19:54:46;1.63;;;1.60;;
18507;SDS011;9383;50.928;12.116;2023-04-01T19:57:42;1.60;;;1.50;;
18507;SDS011;9383;50.928;12.116;2023-04-01T20:00:25;1.48;;;1.48;;
18507;SDS011;9383;50.928;12.116;2023-04-01T20:03:13;2.08;;;1.50;;
18507;SDS011;9383;50.928;12.116;2023-04-01T20:06:02;1.25;;;1.25;;
18507;SDS011;9383;50.928;12.116;2023-04-01T20:09:13;1.50;;;1.40;;
18507;SDS011;9383;50.928;12.116;2023-04-01T20:12:12;2.35;;;1.60;;
18507;SDS011;9383;50.928;12.116;2023-04-01T20:14:44;1.70;;;1.60;;
18507;SDS011;9383;50.928;12.116;2023-04-01T20:25:17;3.05;;;2.85;;
18507;SDS011;9383;50.928;12.116;2023-04-01T20:30:53;3.22;;;3.03;;
18507;SDS011;9383;50.928;12.116;2023-04-01T20:36:33;2.47;;;2.38;;
18507;SDS011;9383;50.928;12.116;2023-04-01T20:39:06;2.95;;;2.65;;
18507;SDS011;9383;50.928;12.116;2023-04-01T20:42:03;2.50;;;2.40;;
18507;SDS011;9383;50.928;12.116;2023-04-01T20:44:52;2.50;;;2.35;;
18507;SDS011;9383;50.928;12.116;2023-04-01T20:50:41;2.80;;;2.35;;
18507;SDS011;9383;50.928;12.116;2023-04-01T20:53:30;3.13;;;2.35;;
18507;SDS011;9383;50.928;12.116;2023-04-01T21:08:34;5.63;;;5.13;;
18507;SDS011;9383;50.928;12.116;2023-04-01T21:14:31;2.85;;;2.17;;
18507;SDS011;9383;50.928;12.116;2023-04-01T21:17:17;4.32;;;2.70;;
18507;SDS011;9383;50.928;12.116;2023-04-01T21:31:53;1.70;;;1.60;;
18507;SDS011;9383;50.928;12.116;2023-04-01T21:40:20;1.67;;;1.58;;
18507;SDS011;9383;50.928;12.116;2023-04-01T21:43:12;2.10;;;2.00;;
18507;SDS011;9383;50.928;12.116;2023-04-01T21:46:50;2.30;;;2.20;;
18507;SDS011;9383;50.928;12.116;2023-04-01T21:49:37;2.33;;;2.22;;
18507;SDS011;9383;50.928;12.116;2023-04-01T21:52:29;2.60;;;2.50;;
18507;SDS011;9383;50.928;12.116;2023-04-01T21:58:21;3.20;;;3.00;;
18507;SDS011;9383;50.928;12.116;2023-04-01T22:04:01;3.72;;;3.42;;
18507;SDS011;9383;50.928;12.116;2023-04-01T22:06:50;4.25;;;4.05;;
18507;SDS011;9383;50.928;12.116;2023-04-01T22:09:39;4.47;;;4.07;;
18507;SDS011;9383;50.928;12.116;2023-04-01T22:17:43;3.85;;;3.65;;
18507;SDS011;9383;50.928;12.116;2023-04-01T22:20:23;3.58;;;3.38;;
18507;SDS011;9383;50.928;12.116;2023-04-01T22:26:02;3.47;;;3.28;;
18507;SDS011;9383;50.928;12.116;2023-04-01T22:31:25;3.00;;;2.85;;
18507;SDS011;9383;50.928;12.116;2023-04-01T22:37:17;2.85;;;2.65;;
18507;SDS011;9383;50.928;12.116;2023-04-01T22:40:00;2.67;;;2.47;;
18507;SDS011;9383;50.928;12.116;2023-04-01T22:42:47;2.90;;;2.70;;
18507;SDS011;9383;50.928;12.116;2023-04-01T22:45:19;2.88;;;2.67;;
18507;SDS011;9383;50.928;12.116;2023-04-01T22:51:24;3.35;;;3.15;;
18507;SDS011;9383;50.928;12.116;2023-04-01T22:57:04;3.65;;;3.40;;
18507;SDS011;9383;50.928;12.116;2023-04-01T23:05:51;4.00;;;3.70;;
18507;SDS011;9383;50.928;12.116;2023-04-01T23:08:48;3.65;;;3.45;;
18507;SDS011;9383;50.928;12.116;2023-04-01T23:14:34;3.45;;;3.25;;
18507;SDS011;9383;50.928;12.116;2023-04-01T23:17:20;3.25;;;2.95;;
18507;SDS011;9383;50.928;12.116;2023-04-01T23:22:48;3.63;;;3.42;;
18507;SDS011;9383;50.928;12.116;2023-04-01T23:25:54;3.50;;;3.30;;
18507;SDS011;9383;50.928;12.116;2023-04-01T23:28:53;3.53;;;3.33;;
18507;SDS011;9383;50.928;12.116;2023-04-01T23:31:38;3.97;;;3.70;;
18507;SDS011;9383;50.928;12.116;2023-04-01T23:36:52;3.58;;;3.38;;
18507;SDS011;9383;50.928;12.116;2023-04-01T23:39:35;4.00;;;3.75;;
18507;SDS011;9383;50.928;12.116;2023-04-01T23:42:26;4.00;;;3.70;;
18507;SDS011;9383;50.928;12.116;2023-04-01T23:45:04;3.88;;;3.58;;
18507;SDS011;9383;50.928;12.116;2023-04-01T23:47:46;4.13;;;3.80;;
18507;SDS011;9383;50.928;12.116;2023-04-01T23:50:22;3.70;;;3.50;;
18507;SDS011;9383;50.928;12.116;2023-04-01T23:53:02;4.03;;;3.72;;
18507;SDS011;9383;50.928;12.116;2023-04-01T23:55:48;4.03;;;3.72;;
18507;SDS011;9383;50.928;12.116;2023-04-01T23:58:23;4.00;;;3.70;;
